Time;durP1;ratioP1;P1;durP2;ratioP2;P2;SDS_P1;SDS_P2;PMS_P1;PMS_P2;Temp;Humidity;BMP_temperature;BMP_pressure;BME280_temperature;BME280_humidity;BME280_pressure;Samples;Min_cycle;Max_cycle;Signal;HPM_P1;HPM_P2
2023/01/16 00:00:00;;;;;;;;;;;;;;;11.47;75.86;99214.97;1045052;28;724;-71
2023/01/16 00:00:50;;;;;;;;;;;;;;;11.49;75.90;99218.34;1046928;28;1241;-71
2023/01/16 00:01:41;;;;;;;;;;;;;;;11.46;75.75;99207.97;1048301;28;794;-71
2023/01/16 00:02:31;;;;;;;;;;;;;;;11.49;75.84;99221.00;1048407;28;1906;-71
2023/01/16 00:03:21;;;;;;;;;;;;;;;11.48;74.95;99219.31;1048308;28;1059;-71
2023/01/16 00:04:12;;;;;;;;;;;;;;;11.48;75.54;99215.81;1052087;28;729;-71
2023/01/16 00:05:02;;;;;;;;;;;;;;;11.48;74.93;99221.16;1048357;28;685;-71
2023/01/16 00:05:53;;;;;;;;;;;;;;;11.51;75.65;99217.34;1049037;28;677;-71
2023/01/16 00:06:43;;;;;;;;;;;;;;;11.51;75.81;99214.69;1051680;28;1147;-71
2023/01/16 00:07:34;;;;;;;;;;;;;;;11.48;74.88;99215.81;1051833;28;1143;-71
2023/01/16 00:08:24;;;;;;;;;;;;;;;11.52;75.06;99211.88;1048986;28;657;-71
2023/01/16 00:09:14;;;;;;;;;;;;;;;11.50;75.39;99205.84;1049522;28;1049;-71
2023/01/16 00:10:05;;;;;;;;;;;;;;;11.49;75.11;99199.66;1052071;28;681;-71
2023/01/16 00:10:55;;;;;;;;;;;;;;;11.50;75.49;99197.84;1048502;28;665;-71
2023/01/16 00:11:46;;;;;;;;;;;;;;;11.52;75.73;99201.22;1049190;28;673;-71
2023/01/16 00:12:36;;;;;;;;;;;;;;;11.48;75.61;99189.97;1052781;28;1170;-71
2023/01/16 00:13:27;;;;;;;;;;;;;;;11.47;75.08;99188.31;1052017;28;622;-71
2023/01/16 00:14:17;;;;;;;;;;;;;;;11.45;75.01;99184.13;1045032;28;712;-71
2023/01/16 00:15:07;;;;;;;;;;;;;;;11.45;75.76;99179.63;1044347;28;741;-71
2023/01/16 00:15:58;;;;;;;;;;;;;;;11.46;75.70;99185.81;1047731;28;657;-72
2023/01/16 00:16:48;;;;;;;;;;;;;;;11.46;74.91;99181.28;1050796;28;1143;-71
2023/01/16 00:17:39;;;;;;;;;;;;;;;11.47;74.87;99172.28;1048988;28;849;-72
2023/01/16 00:18:29;;;;;;;;;;;;;;;11.44;75.25;99179.78;1051691;28;688;-71
2023/01/16 00:19:20;;;;;;;;;;;;;;;11.45;75.68;99171.63;1048880;28;637;-71
2023/01/16 00:20:10;;;;;;;;;;;;;;;11.45;75.04;99174.28;1051015;28;1155;-71
2023/01/16 00:21:00;;;;;;;;;;;;;;;11.45;75.38;99176.97;1048165;28;650;-71
2023/01/16 00:21:51;;;;;;;;;;;;;;;11.46;75.45;99167.13;1048373;28;1249;-71
2023/01/16 00:22:41;;;;;;;;;;;;;;;11.45;75.53;99165.44;1048112;28;1910;-71
2023/01/16 00:23:32;;;;;;;;;;;;;;;11.47;75.22;99168.78;1051731;28;1176;-71
2023/01/16 00:24:22;;;;;;;;;;;;;;;11.44;75.02;99161.94;1052123;28;697;-71
2023/01/16 00:25:12;;;;;;;;;;;;;;;11.45;75.61;99163.63;1051724;28;737;-71
2023/01/16 00:26:03;;;;;;;;;;;;;;;11.43;75.46;99165.59;1051897;28;1151;-70
2023/01/16 00:26:53;;;;;;;;;;;;;;;11.45;75.83;99157.44;1051762;28;745;-71
2023/01/16 00:27:44;;;;;;;;;;;;;;;11.43;75.18;99156.75;1048636;28;732;-70
2023/01/16 00:28:36;;;;;;;;;;;;;;;11.46;75.20;99161.81;1047670;28;1466;-71
2023/01/16 00:29:27;;;;;;;;;;;;;;;11.45;75.28;99155.63;1048227;28;745;-71
2023/01/16 00:30:19;;;;;;;;;;;;;;;11.45;75.51;99160.97;1052280;28;1004;-71
2023/01/16 00:31:09;;;;;;;;;;;;;;;11.43;75.77;99160.25;1051730;28;986;-70
2023/01/16 00:32:00;;;;;;;;;;;;;;;11.42;75.61;99153.25;1047906;28;647;-70
2023/01/16 00:32:50;;;;;;;;;;;;;;;11.42;75.64;99155.91;1049153;28;1151;-70
2023/01/16 00:33:42;;;;;;;;;;;;;;;11.44;75.94;99148.59;1049200;28;755;-70
2023/01/16 00:34:32;;;;;;;;;;;;;;;11.43;75.04;99149.59;1049700;28;673;-70
2023/01/16 00:35:23;;;;;;;;;;;;;;;11.43;75.01;99140.75;1052805;28;666;-70
2023/01/16 00:36:13;;;;;;;;;;;;;;;11.40;75.83;99141.88;1053355;28;630;-70
2023/01/16 00:37:04;;;;;;;;;;;;;;;11.39;75.04;99137.53;1049694;28;1100;-70
2023/01/16 00:37:54;;;;;;;;;;;;;;;11.39;75.77;99137.53;1049197;28;710;-70
2023/01/16 00:38:45;;;;;;;;;;;;;;;11.40;75.48;99139.22;1052729;28;634;-70
2023/01/16 00:39:38;;;;;;;;;;;;;;;11.39;75.05;99137.53;1053092;28;696;-71
2023/01/16 00:40:28;;;;;;;;;;;;;;;11.41;75.79;99132.91;1052965;28;642;-70
2023/01/16 00:41:18;;;;;;;;;;;;;;;11.41;75.10;99129.38;1050392;28;635;-70
2023/01/16 00:42:09;;;;;;;;;;;;;;;11.42;75.75;99126.56;1052643;28;1146;-70
2023/01/16 00:42:59;;;;;;;;;;;;;;;11.41;75.84;99132.06;1052540;28;694;-71
2023/01/16 00:43:50;;;;;;;;;;;;;;;11.40;75.20;99125.03;1052659;28;1115;-71
2023/01/16 00:44:40;;;;;;;;;;;;;;;11.42;75.32;99115.06;1052632;28;714;-71
2023/01/16 00:45:31;;;;;;;;;;;;;;;11.43;75.18;99114.09;1053412;28;606;-71
2023/01/16 00:46:21;;;;;;;;;;;;;;;11.43;75.33;99117.59;1048505;28;735;-71
2023/01/16 00:47:12;;;;;;;;;;;;;;;11.42;75.75;99115.91;1052162;28;1199;-71
2023/01/16 00:48:02;;;;;;;;;;;;;;;11.42;75.86;99118.56;1050492;28;1145;-70
2023/01/16 00:48:53;;;;;;;;;;;;;;;11.43;75.19;99112.25;1052775;28;702;-70
2023/01/16 00:49:43;;;;;;;;;;;;;;;11.42;74.83;99110.56;1049218;28;856;-70
2023/01/16 00:50:33;;;;;;;;;;;;;;;11.40;75.45;99111.69;1048969;28;618;-70
2023/01/16 00:51:24;;;;;;;;;;;;;;;11.41;75.33;99106.22;1048570;28;1138;-70
2023/01/16 00:52:14;;;;;;;;;;;;;;;11.41;75.17;99108.06;1049628;28;689;-70
2023/01/16 00:53:05;;;;;;;;;;;;;;;11.43;75.71;99109.59;1049067;28;586;-70
2023/01/16 00:53:55;;;;;;;;;;;;;;;11.43;75.27;99101.59;1052808;28;755;-69
2023/01/16 00:54:45;;;;;;;;;;;;;;;11.44;75.82;99107.75;1052486;28;688;-69
2023/01/16 00:55:36;;;;;;;;;;;;;;;11.44;75.19;99103.25;1052811;28;661;-70
2023/01/16 00:56:27;;;;;;;;;;;;;;;11.43;74.99;99098.91;1052848;28;1374;-70
2023/01/16 00:57:17;;;;;;;;;;;;;;;11.41;75.58;99103.56;1052843;28;667;-70
2023/01/16 00:58:08;;;;;;;;;;;;;;;11.44;75.19;99103.25;1052559;28;697;-70
2023/01/16 00:58:58;;;;;;;;;;;;;;;11.40;75.45;99099.22;1051990;28;1552;-70
2023/01/16 00:59:49;;;;;;;;;;;;;;;11.40;75.97;99109.88;1052624;28;665;-70
2023/01/16 01:00:39;;;;;;;;;;;;;;;11.41;75.08;99094.72;1052043;28;1406;-70
2023/01/16 01:01:30;;;;;;;;;;;;;;;11.41;75.01;99098.22;1052627;28;627;-70
2023/01/16 01:02:20;;;;;;;;;;;;;;;11.40;75.62;99101.03;1052999;28;1971;-70
2023/01/16 01:03:10;;;;;;;;;;;;;;;11.39;75.37;99100.19;1053202;28;661;-71
2023/01/16 01:04:01;;;;;;;;;;;;;;;11.37;75.16;99099.50;1053578;28;722;-71
2023/01/16 01:04:51;;;;;;;;;;;;;;;11.38;75.71;99087.84;1052431;28;680;-71
2023/01/16 01:05:42;;;;;;;;;;;;;;;11.39;76.00;99092.19;1050865;28;1170;-71
2023/01/16 01:06:32;;;;;;;;;;;;;;;11.38;76.00;99089.66;1052833;28;717;-72
2023/01/16 01:07:23;;;;;;;;;;;;;;;11.39;75.19;99084.19;1052640;28;577;-72
2023/01/16 01:08:13;;;;;;;;;;;;;;;11.42;75.66;99089.22;1053745;28;1084;-71
2023/01/16 01:09:03;;;;;;;;;;;;;;;11.43;75.16;99082.91;1049447;28;669;-72
2023/01/16 01:09:54;;;;;;;;;;;;;;;11.42;75.42;99078.56;1050348;28;1284;-71
2023/01/16 01:10:44;;;;;;;;;;;;;;;11.42;75.78;99078.56;1048829;28;626;-71
2023/01/16 01:11:35;;;;;;;;;;;;;;;11.42;75.65;99075.06;1050906;28;1171;-71
2023/01/16 01:12:25;;;;;;;;;;;;;;;11.44;75.19;99073.94;1052635;28;1263;-71
2023/01/16 01:13:16;;;;;;;;;;;;;;;11.44;75.33;99075.75;1052457;28;721;-71
2023/01/16 01:14:06;;;;;;;;;;;;;;;11.45;75.70;99072.94;1052545;28;1146;-71
2023/01/16 01:14:56;;;;;;;;;;;;;;;11.44;75.16;99068.59;1049131;28;686;-71
2023/01/16 01:15:47;;;;;;;;;;;;;;;11.42;76.16;99057.22;1047373;28;1229;-71
2023/01/16 01:16:37;;;;;;;;;;;;;;;11.40;75.64;99067.19;1053773;28;702;-71
2023/01/16 01:17:28;;;;;;;;;;;;;;;11.41;76.12;99071.56;1052558;28;696;-71
2023/01/16 01:18:18;;;;;;;;;;;;;;;11.42;76.15;99069.72;1052145;28;1015;-70
2023/01/16 01:19:09;;;;;;;;;;;;;;;11.41;75.19;99066.22;1052462;28;638;-71
2023/01/16 01:19:59;;;;;;;;;;;;;;;11.40;75.72;99067.19;1052694;28;702;-71
2023/01/16 01:20:49;;;;;;;;;;;;;;;11.38;75.70;99063.00;1049199;28;610;-71
2023/01/16 01:21:40;;;;;;;;;;;;;;;11.38;75.27;99063.00;1044590;28;637;-71
2023/01/16 01:22:30;;;;;;;;;;;;;;;11.39;75.29;99062.84;1048093;28;1898;-71
2023/01/16 01:23:21;;;;;;;;;;;;;;;11.40;76.05;99061.88;1048880;28;1084;-71
2023/01/16 01:24:11;;;;;;;;;;;;;;;11.39;75.94;99059.34;1050219;28;644;-71
2023/01/16 01:25:02;;;;;;;;;;;;;;;11.40;75.89;99059.19;1051288;28;1063;-71
2023/01/16 01:25:52;;;;;;;;;;;;;;;11.39;76.04;99059.34;1052652;28;664;-71
2023/01/16 01:26:43;;;;;;;;;;;;;;;11.40;76.14;99056.53;1052510;28;621;-71
2023/01/16 01:27:33;;;;;;;;;;;;;;;11.40;75.91;99059.19;1052499;28;1072;-71
2023/01/16 01:28:23;;;;;;;;;;;;;;;11.38;75.80;99055.00;1050843;28;1430;-71
2023/01/16 01:29:14;;;;;;;;;;;;;;;11.39;75.67;99054.84;1052989;28;1159;-70
2023/01/16 01:30:04;;;;;;;;;;;;;;;11.40;75.84;99066.38;1051853;28;701;-70
2023/01/16 01:30:55;;;;;;;;;;;;;;;11.41;75.25;99055.53;1052294;28;1178;-71
2023/01/16 01:31:45;;;;;;;;;;;;;;;11.41;76.03;99052.03;1052752;28;669;-71
2023/01/16 01:32:38;;;;;;;;;;;;;;;11.42;76.14;99051.91;1052267;28;1108;-70
2023/01/16 01:33:29;;;;;;;;;;;;;;;11.44;76.09;99047.25;1052565;28;674;-70
2023/01/16 01:34:19;;;;;;;;;;;;;;;11.41;75.49;99039.53;1052571;28;926;-70
2023/01/16 01:35:10;;;;;;;;;;;;;;;11.40;76.08;99045.88;1052464;28;638;-70
2023/01/16 01:36:00;;;;;;;;;;;;;;;11.41;75.47;99044.03;1052075;28;748;-70
2023/01/16 01:36:50;;;;;;;;;;;;;;;11.39;75.97;99036.19;1052366;28;661;-71
2023/01/16 01:37:41;;;;;;;;;;;;;;;11.38;76.01;99034.50;1053040;28;709;-70
2023/01/16 01:38:31;;;;;;;;;;;;;;;11.42;76.17;99024.38;1052534;28;1099;-70
2023/01/16 01:39:22;;;;;;;;;;;;;;;11.41;76.02;99028.88;1048929;28;681;-70
2023/01/16 01:40:12;;;;;;;;;;;;;;;11.42;75.42;99022.56;1051889;28;1143;-70
2023/01/16 01:41:03;;;;;;;;;;;;;;;11.43;75.19;99018.91;1048848;28;598;-70
2023/01/16 01:42:42;;;;;;;;;;;;;;;11.43;75.20;99021.56;1052552;28;646;-70
2023/01/16 01:43:03;;;;;;;;;;;;;;;11.43;75.21;99010.91;1049922;28;1474;-70
2023/01/16 01:43:54;;;;;;;;;;;;;;;11.43;75.54;99020.72;1051072;28;762;-70
2023/01/16 01:44:44;;;;;;;;;;;;;;;11.40;75.37;99008.53;1048562;28;669;-70
2023/01/16 01:45:35;;;;;;;;;;;;;;;11.43;75.40;99016.22;1051074;28;968;-70
2023/01/16 01:46:25;;;;;;;;;;;;;;;11.43;76.13;99010.91;1052737;28;628;-71
2023/01/16 01:47:16;;;;;;;;;;;;;;;11.41;75.33;99012.03;1052531;28;735;-70
2023/01/16 01:48:06;;;;;;;;;;;;;;;11.42;75.41;99013.72;1049386;28;629;-70
2023/01/16 01:48:57;;;;;;;;;;;;;;;11.43;75.28;99010.06;1051751;28;1020;-70
2023/01/16 01:49:48;;;;;;;;;;;;;;;11.42;75.83;99009.22;1052421;28;638;-70
2023/01/16 01:50:38;;;;;;;;;;;;;;;11.41;75.67;99009.38;1050126;28;1098;-70
2023/01/16 01:51:29;;;;;;;;;;;;;;;11.40;75.91;99005.88;1052525;28;654;-71
2023/01/16 01:52:19;;;;;;;;;;;;;;;11.40;75.43;99010.34;1048952;28;681;-70
2023/01/16 01:53:09;;;;;;;;;;;;;;;11.39;76.16;99006.84;1048707;28;662;-71
2023/01/16 01:54:00;;;;;;;;;;;;;;;11.39;76.30;99004.19;1052199;28;1171;-71
2023/01/16 01:54:50;;;;;;;;;;;;;;;11.40;75.70;99002.34;1052145;28;700;-70
2023/01/16 01:55:41;;;;;;;;;;;;;;;11.41;75.38;99007.53;1052259;28;1205;-71
2023/01/16 01:56:31;;;;;;;;;;;;;;;11.40;75.74;98999.69;1052383;28;1261;-71
2023/01/16 01:57:22;;;;;;;;;;;;;;;11.40;76.18;99000.53;1052250;28;1233;-70
2023/01/16 01:58:16;;;;;;;;;;;;;;;11.41;75.62;99004.88;1049188;28;766;-70
2023/01/16 01:59:07;;;;;;;;;;;;;;;11.38;75.28;99002.50;1047815;28;619;-71
2023/01/16 01:59:58;;;;;;;;;;;;;;;11.38;76.13;98999.00;1052524;28;941;-71
2023/01/16 02:00:48;;;;;;;;;;;;;;;11.40;75.51;99005.03;1052538;28;725;-71
2023/01/16 02:01:39;;;;;;;;;;;;;;;11.36;76.34;98999.13;1052142;28;952;-71
2023/01/16 02:02:29;;;;;;;;;;;;;;;11.38;75.99;99002.50;1048821;28;1979;-71
2023/01/16 02:03:25;;;;;;;;;;;;;;;11.39;75.54;99003.34;1053321;28;845;-71
2023/01/16 02:04:15;;;;;;;;;;;;;;;11.40;76.00;98995.19;1049358;28;637;-72
2023/01/16 02:05:06;;;;;;;;;;;;;;;11.40;76.29;98994.34;1051866;28;1060;-71
2023/01/16 02:05:56;;;;;;;;;;;;;;;11.39;75.52;98992.69;1052249;28;767;-71
2023/01/16 02:06:47;;;;;;;;;;;;;;;11.37;75.68;98984.81;1052261;28;1318;-71
2023/01/16 02:07:37;;;;;;;;;;;;;;;11.37;76.00;98984.81;1052505;28;626;-71
2023/01/16 02:08:28;;;;;;;;;;;;;;;11.37;75.89;98983.97;1052353;28;637;-71
2023/01/16 02:09:18;;;;;;;;;;;;;;;11.36;75.49;98983.16;1049844;28;668;-71
2023/01/16 02:10:08;;;;;;;;;;;;;;;11.35;75.45;98986.78;1052112;28;1168;-71
2023/01/16 02:10:59;;;;;;;;;;;;;;;11.35;76.21;98981.47;1052917;28;694;-71
2023/01/16 02:11:49;;;;;;;;;;;;;;;11.33;75.81;98978.09;1052387;28;1168;-71
2023/01/16 02:12:40;;;;;;;;;;;;;;;11.36;76.18;98976.97;1052311;28;647;-71
2023/01/16 02:13:30;;;;;;;;;;;;;;;11.36;76.33;98974.31;1052021;28;633;-71
2023/01/16 02:14:21;;;;;;;;;;;;;;;11.37;76.43;98978.66;1051697;28;1203;-71
2023/01/16 02:15:11;;;;;;;;;;;;;;;11.39;75.54;98976.69;1052349;28;1143;-72
2023/01/16 02:19:29;;;;;;;;;;;;;;;11.40;75.25;98965.84;1048653;28;638;-72
2023/01/16 02:20:19;;;;;;;;;;;;;;;11.40;75.77;98959.69;1052515;28;649;-72
2023/01/16 02:21:09;;;;;;;;;;;;;;;11.40;75.30;98963.19;1049215;28;696;-71
2023/01/16 02:22:00;;;;;;;;;;;;;;;11.40;75.33;98960.53;1052413;28;1394;-71
2023/01/16 02:22:50;;;;;;;;;;;;;;;11.39;75.57;98961.50;1048898;28;684;-72
2023/01/16 02:23:41;;;;;;;;;;;;;;;11.39;75.37;98950.00;1048337;28;675;-72
2023/01/16 02:24:31;;;;;;;;;;;;;;;11.38;75.49;98951.84;1052591;28;626;-71
2023/01/16 02:25:22;;;;;;;;;;;;;;;11.42;75.78;98947.03;1051659;28;932;-72
2023/01/16 02:26:12;;;;;;;;;;;;;;;11.40;75.57;98949.03;1052243;28;1163;-72
2023/01/16 02:27:02;;;;;;;;;;;;;;;11.40;76.02;98952.53;1052177;28;875;-72
2023/01/16 02:27:53;;;;;;;;;;;;;;;11.38;75.89;98941.16;1052250;28;1166;-71
2023/01/16 02:28:43;;;;;;;;;;;;;;;11.40;76.22;98947.19;1052510;28;722;-71
2023/01/16 02:29:34;;;;;;;;;;;;;;;11.41;76.14;98948.88;1052329;28;605;-71
2023/01/16 02:30:24;;;;;;;;;;;;;;;11.40;75.67;98944.53;1051885;28;1123;-71
2023/01/16 02:31:15;;;;;;;;;;;;;;;11.38;75.59;98951.84;1052258;28;693;-71
2023/01/16 02:32:05;;;;;;;;;;;;;;;11.38;75.33;98951.84;1048696;28;717;-71
2023/01/16 02:32:55;;;;;;;;;;;;;;;11.39;75.67;98944.66;1049316;28;747;-71
2023/01/16 02:33:46;;;;;;;;;;;;;;;11.39;75.92;98952.66;1048724;28;712;-70
2023/01/16 02:34:36;;;;;;;;;;;;;;;11.41;76.01;98937.38;1048734;28;637;-71
2023/01/16 02:35:27;;;;;;;;;;;;;;;11.39;76.23;98945.50;1048637;28;685;-71
2023/01/16 02:36:17;;;;;;;;;;;;;;;11.39;75.43;98947.34;1048597;28;685;-71
2023/01/16 02:37:08;;;;;;;;;;;;;;;11.37;76.26;98943.97;1048519;28;598;-71
2023/01/16 02:37:58;;;;;;;;;;;;;;;11.38;76.07;98941.16;1048713;28;673;-71
2023/01/16 02:38:48;;;;;;;;;;;;;;;11.40;75.98;98944.53;1048535;28;657;-70
2023/01/16 02:39:39;;;;;;;;;;;;;;;11.38;75.82;98935.84;1051206;28;1170;-71
2023/01/16 02:40:29;;;;;;;;;;;;;;;11.35;75.59;98933.47;1048761;28;586;-71
2023/01/16 02:41:20;;;;;;;;;;;;;;;11.36;75.65;98931.63;1049789;28;666;-71
2023/01/16 02:42:10;;;;;;;;;;;;;;;11.35;76.17;98937.94;1051940;28;662;-71
2023/01/16 02:43:01;;;;;;;;;;;;;;;11.33;75.68;98931.94;1051922;28;1213;-71
2023/01/16 02:43:51;;;;;;;;;;;;;;;11.34;76.29;98931.78;1053402;28;649;-71
2023/01/16 02:44:41;;;;;;;;;;;;;;;11.32;75.92;98928.44;1052403;28;770;-72
2023/01/16 02:45:32;;;;;;;;;;;;;;;11.29;76.43;98923.38;1052269;28;642;-69
2023/01/16 02:46:22;;;;;;;;;;;;;;;11.31;75.56;98924.09;1052202;28;1167;-69
2023/01/16 02:47:13;;;;;;;;;;;;;;;11.30;76.38;98926.91;1052101;28;708;-70
2023/01/16 02:48:03;;;;;;;;;;;;;;;11.29;75.77;98923.38;1048986;28;953;-71
2023/01/16 02:48:53;;;;;;;;;;;;;;;11.29;76.40;98933.22;1051759;28;1114;-71
2023/01/16 02:49:44;;;;;;;;;;;;;;;11.27;76.11;98928.06;1051361;28;1251;-71
2023/01/16 02:50:34;;;;;;;;;;;;;;;11.28;75.83;98928.91;1049480;28;1143;-71
2023/01/16 02:51:25;;;;;;;;;;;;;;;11.28;75.96;98929.75;1051755;28;1361;-71
2023/01/16 02:52:17;;;;;;;;;;;;;;;11.29;76.17;98926.06;1050638;28;1000;-70
2023/01/16 02:53:12;;;;;;;;;;;;;;;11.27;76.34;98924.56;1051284;28;1139;-71
2023/01/16 02:54:02;;;;;;;;;;;;;;;11.25;76.22;98922.03;1052263;28;1167;-72
2023/01/16 02:54:53;;;;;;;;;;;;;;;11.25;75.76;98922.03;1052571;28;1314;-71
2023/01/16 02:55:43;;;;;;;;;;;;;;;11.26;76.35;98915.72;1051876;28;1234;-71
2023/01/16 02:56:35;;;;;;;;;;;;;;;11.27;75.79;98919.22;1051549;28;1291;-71
2023/01/16 02:57:25;;;;;;;;;;;;;;;11.29;75.64;98914.56;1051833;28;1159;-71
2023/01/16 02:58:16;;;;;;;;;;;;;;;11.27;75.91;98914.72;1051472;28;1008;-71
2023/01/16 02:59:06;;;;;;;;;;;;;;;11.29;75.74;98910.06;1052101;28;1218;-71
2023/01/16 02:59:57;;;;;;;;;;;;;;;11.31;75.96;98904.56;1052672;28;1170;-71
2023/01/16 03:00:47;;;;;;;;;;;;;;;11.28;75.58;98908.41;1051945;28;1017;-72
2023/01/16 03:01:40;;;;;;;;;;;;;;;11.29;75.77;98909.22;1050241;28;1183;-71
2023/01/16 03:02:30;;;;;;;;;;;;;;;11.29;76.41;98902.06;1049881;28;1918;-71
2023/01/16 03:03:21;;;;;;;;;;;;;;;11.27;76.14;98896.06;1050672;28;1176;-71
2023/01/16 03:04:11;;;;;;;;;;;;;;;11.26;76.53;98897.06;1049182;28;1219;-71
2023/01/16 03:05:02;;;;;;;;;;;;;;;11.27;76.29;98896.06;1051807;28;1033;-71
2023/01/16 03:05:52;;;;;;;;;;;;;;;11.27;76.29;98893.41;1051109;28;1155;-71
2023/01/16 03:06:42;;;;;;;;;;;;;;;11.29;75.47;98891.41;1051260;28;1248;-70
2023/01/16 03:07:33;;;;;;;;;;;;;;;11.25;76.21;98890.03;1052603;28;1155;-71
2023/01/16 03:08:23;;;;;;;;;;;;;;;11.25;75.59;98890.03;1052850;28;1309;-70
2023/01/16 03:09:14;;;;;;;;;;;;;;;11.25;75.84;98879.38;1053245;28;1226;-70
2023/01/16 03:10:05;;;;;;;;;;;;;;;11.27;75.74;98881.91;1050010;28;1124;-70
2023/01/16 03:10:56;;;;;;;;;;;;;;;11.24;75.56;98879.53;1053020;28;1163;-71
2023/01/16 03:11:46;;;;;;;;;;;;;;;11.26;75.80;98878.38;1050704;28;1123;-70
2023/01/16 03:12:36;;;;;;;;;;;;;;;11.28;76.39;98867.56;1051499;28;1202;-71
2023/01/16 03:13:27;;;;;;;;;;;;;;;11.26;75.57;98870.41;1050641;28;677;-70
2023/01/16 03:14:17;;;;;;;;;;;;;;;11.26;76.50;98859.72;1048646;28;622;-69
2023/01/16 03:15:08;;;;;;;;;;;;;;;11.28;75.97;98860.41;1050611;28;673;-70
2023/01/16 03:15:58;;;;;;;;;;;;;;;11.30;76.09;98855.75;1048566;28;681;-70
2023/01/16 03:16:49;;;;;;;;;;;;;;;11.30;75.94;98854.91;1051718;28;650;-69
2023/01/16 03:17:39;;;;;;;;;;;;;;;11.28;75.50;98852.41;1052173;28;1193;-69
2023/01/16 03:18:29;;;;;;;;;;;;;;;11.27;76.23;98848.06;1051950;28;698;-69
2023/01/16 03:19:20;;;;;;;;;;;;;;;11.27;76.13;98845.41;1052004;28;1171;-69
2023/01/16 03:20:10;;;;;;;;;;;;;;;11.26;75.99;98830.41;1052258;28;725;-69
2023/01/16 03:21:01;;;;;;;;;;;;;;;11.27;75.58;98842.75;1051622;28;1266;-70
2023/01/16 03:21:51;;;;;;;;;;;;;;;11.29;75.59;98823.91;1049698;28;1262;-70
2023/01/16 03:22:42;;;;;;;;;;;;;;;11.30;76.32;98834.41;1051753;28;1901;-71
2023/01/16 03:23:32;;;;;;;;;;;;;;;11.30;76.34;98839.75;1051351;28;1366;-70
2023/01/16 03:24:22;;;;;;;;;;;;;;;11.29;76.32;98838.06;1050943;28;1075;-70
2023/01/16 03:25:13;;;;;;;;;;;;;;;11.25;76.70;98830.56;1052647;28;1150;-70
2023/01/16 03:26:03;;;;;;;;;;;;;;;11.26;76.05;98838.41;1051038;28;1131;-71
2023/01/16 03:26:54;;;;;;;;;;;;;;;11.28;75.97;98833.75;1051889;28;1111;-70
2023/01/16 03:27:44;;;;;;;;;;;;;;;11.30;75.89;98823.75;1052179;28;1087;-70
2023/01/16 03:28:35;;;;;;;;;;;;;;;11.32;76.17;98815.59;1050093;28;1158;-70
2023/01/16 03:29:25;;;;;;;;;;;;;;;11.31;76.59;98814.75;1052189;28;1153;-70
2023/01/16 03:30:16;;;;;;;;;;;;;;;11.33;76.20;98810.09;1050937;28;1138;-70
2023/01/16 03:31:06;;;;;;;;;;;;;;;11.34;75.83;98816.28;1052365;28;1094;-71
2023/01/16 03:31:57;;;;;;;;;;;;;;;11.32;76.53;98810.25;1051052;28;1071;-70
2023/01/16 03:32:47;;;;;;;;;;;;;;;11.31;75.63;98801.41;1052383;28;1103;-69
2023/01/16 03:33:43;;;;;;;;;;;;;;;11.32;76.24;98808.44;1050652;28;1070;-70
2023/01/16 03:34:33;;;;;;;;;;;;;;;11.32;76.63;98808.44;1047679;28;932;-71
2023/01/16 03:35:24;;;;;;;;;;;;;;;11.32;76.38;98805.75;1047377;28;1150;-70
2023/01/16 03:36:14;;;;;;;;;;;;;;;11.31;76.32;98798.75;1049651;28;1070;-70
2023/01/16 03:37:05;;;;;;;;;;;;;;;11.32;76.54;98800.44;1051784;28;1167;-70
2023/01/16 03:37:55;;;;;;;;;;;;;;;11.32;75.63;98794.25;1053214;28;1070;-71
2023/01/16 03:38:46;;;;;;;;;;;;;;;11.29;76.57;98790.06;1052626;28;1259;-71
2023/01/16 03:39:37;;;;;;;;;;;;;;;11.28;76.74;98793.75;1052010;28;1158;-70
2023/01/16 03:40:27;;;;;;;;;;;;;;;11.29;76.02;98787.41;1052089;28;1150;-70
2023/01/16 03:41:18;;;;;;;;;;;;;;;11.29;75.95;98789.22;1048318;28;685;-71
2023/01/16 03:42:08;;;;;;;;;;;;;;;11.30;76.79;98793.56;1050203;28;1151;-71
2023/01/16 03:42:59;;;;;;;;;;;;;;;11.30;75.95;98797.06;1053094;28;732;-71
2023/01/16 03:43:49;;;;;;;;;;;;;;;11.28;76.22;98783.09;1051445;28;945;-70
2023/01/16 03:44:39;;;;;;;;;;;;;;;11.28;76.43;98788.44;1052230;28;629;-69
2023/01/16 03:45:30;;;;;;;;;;;;;;;11.29;76.54;98783.91;1051889;28;714;-70
2023/01/16 03:46:20;;;;;;;;;;;;;;;11.29;76.59;98786.56;1052120;28;626;-70
2023/01/16 03:47:11;;;;;;;;;;;;;;;11.27;76.35;98786.75;1052466;28;765;-69
2023/01/16 03:48:01;;;;;;;;;;;;;;;11.28;76.53;98788.44;1051886;28;1158;-69
2023/01/16 03:48:52;;;;;;;;;;;;;;;11.27;76.56;98784.09;1052382;28;850;-69
2023/01/16 03:49:42;;;;;;;;;;;;;;;11.25;76.58;98778.06;1051606;28;1123;-70
2023/01/16 03:50:33;;;;;;;;;;;;;;;11.27;76.18;98777.91;1052016;28;766;-69
2023/01/16 03:51:23;;;;;;;;;;;;;;;11.29;76.24;98781.22;1051997;28;1457;-69
2023/01/16 03:52:14;;;;;;;;;;;;;;;11.29;76.63;98774.06;1045091;28;665;-69
2023/01/16 03:53:04;;;;;;;;;;;;;;;11.29;76.09;98775.91;1046492;28;1136;-69
2023/01/16 03:53:55;;;;;;;;;;;;;;;11.30;75.99;98775.75;1048060;28;646;-69
2023/01/16 03:54:45;;;;;;;;;;;;;;;11.30;75.78;98774.91;1048511;28;614;-69
2023/01/16 03:55:36;;;;;;;;;;;;;;;11.29;76.44;98766.06;1050474;28;1143;-70
2023/01/16 03:56:26;;;;;;;;;;;;;;;11.28;76.83;98760.94;1051938;28;1128;-69
2023/01/16 03:57:16;;;;;;;;;;;;;;;11.27;76.67;98768.09;1050701;28;1151;-70
2023/01/16 03:58:07;;;;;;;;;;;;;;;11.26;76.23;98758.41;1051859;28;677;-70
2023/01/16 03:58:58;;;;;;;;;;;;;;;11.28;76.33;98767.09;1048872;28;638;-70
2023/01/16 03:59:48;;;;;;;;;;;;;;;11.29;76.81;98767.91;1048310;28;677;-70
2023/01/16 04:00:38;;;;;;;;;;;;;;;11.28;76.80;98759.09;1047986;28;688;-70
2023/01/16 04:01:29;;;;;;;;;;;;;;;11.28;75.97;98755.59;1049722;28;1198;-70
2023/01/16 04:02:19;;;;;;;;;;;;;;;11.27;76.10;98756.59;1051914;28;1168;-71
2023/01/16 04:03:10;;;;;;;;;;;;;;;11.29;76.63;98757.22;1051077;28;995;-71
2023/01/16 04:04:00;;;;;;;;;;;;;;;11.29;76.01;98749.22;1051972;28;701;-71
2023/01/16 04:04:51;;;;;;;;;;;;;;;11.27;76.15;98749.41;1051613;28;1008;-71
2023/01/16 04:05:41;;;;;;;;;;;;;;;11.27;76.79;98745.91;1051934;28;673;-71
2023/01/16 04:06:31;;;;;;;;;;;;;;;11.27;76.49;98744.09;1052004;28;1225;-71
2023/01/16 04:07:22;;;;;;;;;;;;;;;11.27;76.65;98737.91;1051801;28;611;-70
2023/01/16 04:08:12;;;;;;;;;;;;;;;11.27;76.75;98738.75;1051772;28;715;-70
2023/01/16 04:09:03;;;;;;;;;;;;;;;11.26;75.97;98744.25;1052417;28;598;-70
2023/01/16 04:09:53;;;;;;;;;;;;;;;11.26;76.47;98730.91;1048334;28;707;-70
2023/01/16 04:10:44;;;;;;;;;;;;;;;11.25;76.71;98729.22;1052638;28;1282;-70
2023/01/16 04:11:34;;;;;;;;;;;;;;;11.24;76.88;98725.72;1044458;28;738;-70
2023/01/16 04:12:24;;;;;;;;;;;;;;;11.25;76.70;98718.56;1045034;28;1229;-70
2023/01/16 04:13:15;;;;;;;;;;;;;;;11.28;76.52;98726.25;1048291;28;665;-70
2023/01/16 04:14:05;;;;;;;;;;;;;;;11.25;76.03;98718.56;1050438;28;1171;-70
2023/01/16 04:14:56;;;;;;;;;;;;;;;11.24;76.72;98717.72;1048366;28;633;-70
2023/01/16 04:15:46;;;;;;;;;;;;;;;11.25;76.43;98710.56;1049718;28;1210;-70
2023/01/16 04:16:38;;;;;;;;;;;;;;;11.24;76.01;98709.72;1048154;28;626;-69
2023/01/16 04:17:28;;;;;;;;;;;;;;;11.24;76.08;98717.72;1051044;28;1218;-70
2023/01/16 04:18:18;;;;;;;;;;;;;;;11.27;76.21;98711.25;1051999;28;1122;-70
2023/01/16 04:19:09;;;;;;;;;;;;;;;11.26;76.83;98713.09;1049843;28;691;-70
2023/01/16 04:19:59;;;;;;;;;;;;;;;11.25;76.74;98706.06;1052027;28;579;-69
2023/01/16 04:20:50;;;;;;;;;;;;;;;11.22;76.70;98698.38;1051865;28;646;-69
2023/01/16 04:21:40;;;;;;;;;;;;;;;11.24;75.94;98703.56;1051847;28;1174;-70
2023/01/16 04:22:31;;;;;;;;;;;;;;;11.23;76.10;98694.72;1052308;28;1897;-70
2023/01/16 04:23:21;;;;;;;;;;;;;;;11.24;76.07;98699.06;1051904;28;1174;-70
2023/01/16 04:24:12;;;;;;;;;;;;;;;11.24;75.94;98691.06;1051682;28;894;-70
2023/01/16 04:25:02;;;;;;;;;;;;;;;11.25;76.01;98694.56;1051901;28;594;-70
2023/01/16 04:25:52;;;;;;;;;;;;;;;11.25;76.40;98692.75;1052549;28;734;-70
2023/01/16 04:26:43;;;;;;;;;;;;;;;11.26;76.76;98683.75;1051830;28;685;-70
2023/01/16 04:27:33;;;;;;;;;;;;;;;11.27;76.83;98688.09;1049015;28;681;-69
2023/01/16 04:28:24;;;;;;;;;;;;;;;11.27;75.77;98682.75;1048277;28;640;-70
2023/01/16 04:29:14;;;;;;;;;;;;;;;11.28;76.06;98678.28;1047748;28;615;-70
2023/01/16 04:30:05;;;;;;;;;;;;;;;11.26;76.80;98675.75;1049015;28;1202;-70
2023/01/16 04:30:55;;;;;;;;;;;;;;;11.27;75.87;98674.78;1048276;28;618;-70
2023/01/16 04:31:45;;;;;;;;;;;;;;;11.27;76.63;98668.59;1051835;28;1200;-70